<?xml version="1.0" encoding="UTF-8" standalone="no" ?>
<gpx xmlns="http://www.topografix.com/GPX/1/1" xmlns:xsi="http://www.w3.org/2001/XMLSchema-instance" xsi:schemaLocation="http://www.topografix.com/GPX/1/1 http://www.topografix.com/GPX/1/1/gpx.xsd" version="1.1" creator="VisuGPX - https://www.visugpx.com">
  <metadata>
    <name>TOTAL 4x4 </name>
  </metadata>
  <wpt lat="42.36368" lon="2.84007">
    <ele>181</ele>
  </wpt>
  <wpt lat="42.36397" lon="2.83975">
    <ele>185.2</ele>
  </wpt>
  <wpt lat="42.36387" lon="2.83877">
    <ele>193</ele>
  </wpt>
  <wpt lat="42.36443" lon="2.83943">
    <ele>186.6</ele>
  </wpt>
  <wpt lat="42.2714" lon="2.52859">
    <ele>415.7</ele>
  </wpt>
  <wpt lat="42.27123" lon="2.52776">
    <ele>417.3</ele>
  </wpt>
  <wpt lat="42.27143" lon="2.53029">
    <ele>408.8</ele>
  </wpt>
  <trk>
    <name><![CDATA[TOTAL 4x4 _22]]></name>
    <extensions>
      <line xmlns="http://www.topografix.com/GPX/gpx_style/0/2">
        <color>008888</color>
        <width>4</width>
      </line>
    </extensions>
    <trkseg>
      <trkpt lat="42.68919" lon="-1.31511">
        <ele>448.86</ele>
        <time>2021-08-05T08:42:33Z</time>
      </trkpt>
      <trkpt lat="42.68917" lon="-1.31514">
        <ele>448.25</ele>
        <time>2021-08-05T08:42:34Z</time>
      </trkpt>
      <trkpt lat="42.68916" lon="-1.31579">
        <ele>444.77</ele>
        <time>2021-08-05T08:42:41Z</time>
      </trkpt>
      <trkpt lat="42.68915" lon="-1.31732">
        <ele>444.5</ele>
        <time>2021-08-05T08:42:50Z</time>
      </trkpt>
      <trkpt lat="42.68914" lon="-1.31749">
        <ele>444.57</ele>
        <time>2021-08-05T08:42:51Z</time>
      </trkpt>
      <trkpt lat="42.68878" lon="-1.3193">
        <ele>445.25</ele>
        <time>2021-08-05T08:43:03Z</time>
      </trkpt>
      <trkpt lat="42.6886" lon="-1.32013">
        <ele>445.25</ele>
        <time>2021-08-05T08:43:08Z</time>
      </trkpt>
      <trkpt lat="42.68831" lon="-1.32058">
        <ele>445.27</ele>
        <time>2021-08-05T08:43:12Z</time>
      </trkpt>
      <trkpt lat="42.68786" lon="-1.32123">
        <ele>445.85</ele>
        <time>2021-08-05T08:43:17Z</time>
      </trkpt>
      <trkpt lat="42.6875" lon="-1.32239">
        <ele>449.51</ele>
        <time>2021-08-05T08:43:23Z</time>
      </trkpt>
      <trkpt lat="42.68731" lon="-1.32319">
        <ele>453.53</ele>
        <time>2021-08-05T08:43:27Z</time>
      </trkpt>
      <trkpt lat="42.68726" lon="-1.32385">
        <ele>457.13</ele>
        <time>2021-08-05T08:43:30Z</time>
      </trkpt>
      <trkpt lat="42.68728" lon="-1.32452">
        <ele>460.77</ele>
        <time>2021-08-05T08:43:33Z</time>
      </trkpt>
      <trkpt lat="42.68737" lon="-1.32516">
        <ele>464.74</ele>
        <time>2021-08-05T08:43:36Z</time>
      </trkpt>
      <trkpt lat="42.68743" lon="-1.32575">
        <ele>468.53</ele>
        <time>2021-08-05T08:43:39Z</time>
      </trkpt>
      <trkpt lat="42.68731" lon="-1.32616">
        <ele>473.04</ele>
        <time>2021-08-05T08:43:43Z</time>
      </trkpt>
      <trkpt lat="42.68705" lon="-1.32599">
        <ele>475.5</ele>
        <time>2021-08-05T08:43:46Z</time>
      </trkpt>
      <trkpt lat="42.68667" lon="-1.3256">
        <ele>477.8</ele>
        <time>2021-08-05T08:43:50Z</time>
      </trkpt>
      <trkpt lat="42.68647" lon="-1.3257">
        <ele>479.57</ele>
        <time>2021-08-05T08:43:56Z</time>
      </trkpt>
      <trkpt lat="42.68619" lon="-1.3258">
        <ele>479.86</ele>
        <time>2021-08-05T08:44:02Z</time>
      </trkpt>
      <trkpt lat="42.68607" lon="-1.32595">
        <ele>479.56</ele>
        <time>2021-08-05T08:44:05Z</time>
      </trkpt>
      <trkpt lat="42.68606" lon="-1.32604">
        <ele>479.46</ele>
        <time>2021-08-05T08:44:06Z</time>
      </trkpt>
      <trkpt lat="42.68609" lon="-1.32611">
        <ele>479.4</ele>
        <time>2021-08-05T08:44:07Z</time>
      </trkpt>
      <trkpt lat="42.68614" lon="-1.32618">
        <ele>479.34</ele>
        <time>2021-08-05T08:44:08Z</time>
      </trkpt>
      <trkpt lat="42.68623" lon="-1.32621">
        <ele>479.17</ele>
        <time>2021-08-05T08:44:09Z</time>
      </trkpt>
      <trkpt lat="42.68724" lon="-1.32678">
        <ele>478.03</ele>
        <time>2021-08-05T08:44:17Z</time>
      </trkpt>
      <trkpt lat="42.68802" lon="-1.32728">
        <ele>474.93</ele>
        <time>2021-08-05T08:44:22Z</time>
      </trkpt>
      <trkpt lat="42.68867" lon="-1.3277">
        <ele>471.89</ele>
        <time>2021-08-05T08:44:26Z</time>
      </trkpt>
      <trkpt lat="42.68971" lon="-1.3281">
        <ele>468.51</ele>
        <time>2021-08-05T08:44:32Z</time>
      </trkpt>
      <trkpt lat="42.69049" lon="-1.32833">
        <ele>465.5</ele>
        <time>2021-08-05T08:44:37Z</time>
      </trkpt>
      <trkpt lat="42.6913" lon="-1.32851">
        <ele>462.33</ele>
        <time>2021-08-05T08:44:42Z</time>
      </trkpt>
      <trkpt lat="42.69256" lon="-1.32907">
        <ele>465.37</ele>
        <time>2021-08-05T08:44:50Z</time>
      </trkpt>
      <trkpt lat="42.69299" lon="-1.3293">
        <ele>468.67</ele>
        <time>2021-08-05T08:44:53Z</time>
      </trkpt>
      <trkpt lat="42.69341" lon="-1.32952">
        <ele>472.6</ele>
        <time>2021-08-05T08:44:56Z</time>
      </trkpt>
      <trkpt lat="42.69382" lon="-1.32975">
        <ele>477.11</ele>
        <time>2021-08-05T08:44:59Z</time>
      </trkpt>
      <trkpt lat="42.69409" lon="-1.32989">
        <ele>480.51</ele>
        <time>2021-08-05T08:45:01Z</time>
      </trkpt>
      <trkpt lat="42.69436" lon="-1.33002">
        <ele>484.02</ele>
        <time>2021-08-05T08:45:03Z</time>
      </trkpt>
      <trkpt lat="42.69465" lon="-1.33015">
        <ele>487.61</ele>
        <time>2021-08-05T08:45:05Z</time>
      </trkpt>
      <trkpt lat="42.69494" lon="-1.33029">
        <ele>490.99</ele>
        <time>2021-08-05T08:45:07Z</time>
      </trkpt>
      <trkpt lat="42.69508" lon="-1.33036">
        <ele>492.57</ele>
        <time>2021-08-05T08:45:08Z</time>
      </trkpt>
      <trkpt lat="42.69561" lon="-1.33083">
        <ele>497.79</ele>
        <time>2021-08-05T08:45:12Z</time>
      </trkpt>
      <trkpt lat="42.69635" lon="-1.33167">
        <ele>500.76</ele>
        <time>2021-08-05T08:45:17Z</time>
      </trkpt>
      <trkpt lat="42.69718" lon="-1.33231">
        <ele>501.8</ele>
        <time>2021-08-05T08:45:22Z</time>
      </trkpt>
      <trkpt lat="42.69803" lon="-1.33353">
        <ele>504.71</ele>
        <time>2021-08-05T08:45:29Z</time>
      </trkpt>
      <trkpt lat="42.69855" lon="-1.3343">
        <ele>507.94</ele>
        <time>2021-08-05T08:45:34Z</time>
      </trkpt>
      <trkpt lat="42.69935" lon="-1.33511">
        <ele>511.2</ele>
        <time>2021-08-05T08:45:40Z</time>
      </trkpt>
      <trkpt lat="42.69998" lon="-1.3357">
        <ele>511.65</ele>
        <time>2021-08-05T08:45:45Z</time>
      </trkpt>
      <trkpt lat="42.70097" lon="-1.33612">
        <ele>509.03</ele>
        <time>2021-08-05T08:45:52Z</time>
      </trkpt>
      <trkpt lat="42.70173" lon="-1.33608">
        <ele>505.31</ele>
        <time>2021-08-05T08:45:57Z</time>
      </trkpt>
      <trkpt lat="42.70269" lon="-1.33663">
        <ele>505.21</ele>
        <time>2021-08-05T08:46:04Z</time>
      </trkpt>
      <trkpt lat="42.70354" lon="-1.33709">
        <ele>508.39</ele>
        <time>2021-08-05T08:46:10Z</time>
      </trkpt>
      <trkpt lat="42.70475" lon="-1.33739">
        <ele>511.59</ele>
        <time>2021-08-05T08:46:16Z</time>
      </trkpt>
      <trkpt lat="42.70687" lon="-1.33782">
        <ele>512.5</ele>
        <time>2021-08-05T08:46:27Z</time>
      </trkpt>
      <trkpt lat="42.70704" lon="-1.33786">
        <ele>512.65</ele>
        <time>2021-08-05T08:46:28Z</time>
      </trkpt>
      <trkpt lat="42.70801" lon="-1.33768">
        <ele>516.54</ele>
        <time>2021-08-05T08:46:34Z</time>
      </trkpt>
      <trkpt lat="42.70817" lon="-1.33764">
        <ele>517.48</ele>
        <time>2021-08-05T08:46:35Z</time>
      </trkpt>
      <trkpt lat="42.70908" lon="-1.33797">
        <ele>521.79</ele>
        <time>2021-08-05T08:46:41Z</time>
      </trkpt>
      <trkpt lat="42.70919" lon="-1.33808">
        <ele>522.68</ele>
        <time>2021-08-05T08:46:42Z</time>
      </trkpt>
      <trkpt lat="42.70953" lon="-1.33867">
        <ele>526.94</ele>
        <time>2021-08-05T08:46:46Z</time>
      </trkpt>
      <trkpt lat="42.70982" lon="-1.33926">
        <ele>530.3</ele>
        <time>2021-08-05T08:46:50Z</time>
      </trkpt>
      <trkpt lat="42.71004" lon="-1.33969">
        <ele>532.44</ele>
        <time>2021-08-05T08:46:53Z</time>
      </trkpt>
      <trkpt lat="42.71055" lon="-1.34003">
        <ele>534.85</ele>
        <time>2021-08-05T08:46:57Z</time>
      </trkpt>
      <trkpt lat="42.71087" lon="-1.34007">
        <ele>535.97</ele>
        <time>2021-08-05T08:46:59Z</time>
      </trkpt>
      <trkpt lat="42.71189" lon="-1.34056">
        <ele>538.54</ele>
        <time>2021-08-05T08:47:06Z</time>
      </trkpt>
      <trkpt lat="42.71291" lon="-1.34108">
        <ele>535.27</ele>
        <time>2021-08-05T08:47:15Z</time>
      </trkpt>
      <trkpt lat="42.71308" lon="-1.34115">
        <ele>531.67</ele>
        <time>2021-08-05T08:47:19Z</time>
      </trkpt>
      <trkpt lat="42.71313" lon="-1.34116">
        <ele>528.28</ele>
        <time>2021-08-05T08:47:23Z</time>
      </trkpt>
      <trkpt lat="42.71313" lon="-1.34117">
        <ele>525.22</ele>
        <time>2021-08-05T08:47:30Z</time>
      </trkpt>
      <trkpt lat="42.71314" lon="-1.34117">
        <ele>523.46</ele>
        <time>2021-08-05T08:48:05Z</time>
      </trkpt>
      <trkpt lat="42.71329" lon="-1.34121">
        <ele>523.46</ele>
        <time>2021-08-05T08:48:34Z</time>
      </trkpt>
      <trkpt lat="42.71373" lon="-1.34142">
        <ele>521.5</ele>
        <time>2021-08-05T08:48:42Z</time>
      </trkpt>
      <trkpt lat="42.71396" lon="-1.34145">
        <ele>517.85</ele>
        <time>2021-08-05T08:48:48Z</time>
      </trkpt>
      <trkpt lat="42.71408" lon="-1.34124">
        <ele>515.57</ele>
        <time>2021-08-05T08:48:52Z</time>
      </trkpt>
      <trkpt lat="42.7142" lon="-1.34102">
        <ele>513.86</ele>
        <time>2021-08-05T08:48:55Z</time>
      </trkpt>
      <trkpt lat="42.71453" lon="-1.34066">
        <ele>510.77</ele>
        <time>2021-08-05T08:49:00Z</time>
      </trkpt>
      <trkpt lat="42.71495" lon="-1.34012">
        <ele>507.25</ele>
        <time>2021-08-05T08:49:05Z</time>
      </trkpt>
      <trkpt lat="42.71504" lon="-1.34001">
        <ele>506.49</ele>
        <time>2021-08-05T08:49:06Z</time>
      </trkpt>
      <trkpt lat="42.71525" lon="-1.33983">
        <ele>503.95</ele>
        <time>2021-08-05T08:49:08Z</time>
      </trkpt>
      <trkpt lat="42.71537" lon="-1.33978">
        <ele>503.95</ele>
        <time>2021-08-05T08:49:09Z</time>
      </trkpt>
      <trkpt lat="42.71548" lon="-1.33974">
        <ele>502.96</ele>
        <time>2021-08-05T08:49:10Z</time>
      </trkpt>
    </trkseg>
  </trk>
</gpx>